createdAt,value
2022-07-25T00:04:21.064Z,92.51
2022-07-25T00:09:14.516Z,92.73
2022-07-25T00:14:06.790Z,92.86
2022-07-25T00:18:58.870Z,93.50
2022-07-25T00:23:50.766Z,93.58
2022-07-25T00:28:43.339Z,93.45
2022-07-25T00:33:35.096Z,93.45
2022-07-25T00:38:26.786Z,93.67
2022-07-25T00:43:18.439Z,93.85
2022-07-25T00:48:10.236Z,94.64
2022-07-25T00:53:02.199Z,95.43
2022-07-25T00:57:53.936Z,96.02
2022-07-25T01:02:46.163Z,96.56
2022-07-25T01:07:39.221Z,95.95
2022-07-25T01:12:30.938Z,94.45
2022-07-25T01:17:22.645Z,92.47
2022-07-25T01:22:14.338Z,91.65
2022-07-25T01:27:06.058Z,91.67
2022-07-25T01:31:57.736Z,91.56
2022-07-25T01:36:49.574Z,91.82
2022-07-25T01:41:41.233Z,91.55
2022-07-25T01:46:33.007Z,92.06
2022-07-25T01:51:26.494Z,92.64
2022-07-25T01:56:19.416Z,92.78
2022-07-25T02:01:14.492Z,92.83
2022-07-25T02:06:08.036Z,91.78
2022-07-25T02:11:00.675Z,90.30
2022-07-25T02:15:52.463Z,89.36
2022-07-25T02:20:44.297Z,88.41
2022-07-25T02:25:35.953Z,87.65
2022-07-25T02:30:27.963Z,87.65
2022-07-25T02:35:19.967Z,87.60
2022-07-25T02:40:13.006Z,87.58
2022-07-25T02:45:05.337Z,88.00
2022-07-25T02:49:57.088Z,87.84
2022-07-25T02:54:48.697Z,88.24
2022-07-25T02:59:40.306Z,88.84
2022-07-25T03:04:32.115Z,88.60
2022-07-25T03:09:23.903Z,89.15
2022-07-25T03:14:16.367Z,89.69
2022-07-25T03:19:10.429Z,89.71
2022-07-25T03:24:02.530Z,90.75
2022-07-25T03:28:54.274Z,91.11
2022-07-25T03:33:46.420Z,92.56
2022-07-25T03:38:39.430Z,92.71
2022-07-25T03:43:31.738Z,93.56
2022-07-25T03:48:23.475Z,94.13
2022-07-25T03:53:15.206Z,95.19
2022-07-25T03:58:07.238Z,96.15
2022-07-25T04:02:59.113Z,96.44
2022-07-25T04:07:50.898Z,96.43
2022-07-25T04:12:42.571Z,96.12
2022-07-25T04:17:34.420Z,95.63
2022-07-25T04:22:26.177Z,95.81
2022-07-25T04:27:17.893Z,96.02
2022-07-25T04:32:09.646Z,95.62
2022-07-25T04:37:01.483Z,95.47
2022-07-25T04:41:53.093Z,94.91
2022-07-25T04:46:44.817Z,95.13
2022-07-25T04:51:36.439Z,95.97
2022-07-25T04:56:28.111Z,95.94
2022-07-25T05:01:19.832Z,95.96
2022-07-25T05:06:11.510Z,95.43
2022-07-25T05:11:05.579Z,95.04
2022-07-25T05:15:57.249Z,95.32
2022-07-25T05:20:49.010Z,94.69
2022-07-25T05:25:40.702Z,94.39
2022-07-25T05:30:35.368Z,93.88
2022-07-25T05:35:31.028Z,93.51
2022-07-25T05:40:22.939Z,93.46
2022-07-25T05:45:15.089Z,93.06
2022-07-25T05:50:07.208Z,92.80
2022-07-25T05:54:58.856Z,93.31
2022-07-25T05:59:50.465Z,93.40
2022-07-25T06:04:42.094Z,92.75
2022-07-25T06:09:33.840Z,92.63
2022-07-25T06:14:26.674Z,92.34
2022-07-25T06:19:18.666Z,92.15
2022-07-25T06:24:10.491Z,92.74
2022-07-25T06:29:02.615Z,92.37
2022-07-25T06:33:54.297Z,92.28
2022-07-25T06:38:45.939Z,92.61
2022-07-25T06:43:37.566Z,92.54
2022-07-25T06:48:30.470Z,92.21
2022-07-25T06:53:22.115Z,92.18
2022-07-25T06:58:13.818Z,92.01
2022-07-25T07:03:05.562Z,90.53
2022-07-25T07:07:58.104Z,91.04
2022-07-25T07:12:49.896Z,90.88
2022-07-25T07:17:41.980Z,91.19
2022-07-25T07:22:43.882Z,91.07
2022-07-25T07:27:35.553Z,91.15
2022-07-25T07:32:27.171Z,90.51
2022-07-25T07:37:18.773Z,87.47
2022-07-25T07:42:10.382Z,86.73
2022-07-25T07:47:02.869Z,86.40
2022-07-25T07:51:54.590Z,84.90
2022-07-25T07:56:46.323Z,84.62
2022-07-25T08:01:38.075Z,83.78
2022-07-25T08:06:29.895Z,81.56
2022-07-25T08:11:21.612Z,81.34
2022-07-25T08:16:13.866Z,80.84
2022-07-25T08:21:07.048Z,78.53
2022-07-25T08:25:59.488Z,74.63
2022-07-25T08:30:51.604Z,69.35
2022-07-25T08:35:52.233Z,66.97
2022-07-25T08:40:43.912Z,65.64
2022-07-25T08:45:36.809Z,63.95
2022-07-25T08:50:30.173Z,63.89
2022-07-25T08:55:23.949Z,62.31
2022-07-25T09:00:18.906Z,63.90
2022-07-25T09:05:10.620Z,65.24
2022-07-25T09:10:20.381Z,67.09
2022-07-25T09:15:12.145Z,70.22
2022-07-25T09:20:06.872Z,72.06
2022-07-25T09:24:58.594Z,75.23
2022-07-25T09:29:50.340Z,77.70
2022-07-25T09:34:45.202Z,76.21
2022-07-25T09:39:48.964Z,74.88
2022-07-25T09:44:41.205Z,76.00
2022-07-25T09:49:43.470Z,74.89
2022-07-25T09:54:35.617Z,69.67
2022-07-25T09:59:27.547Z,69.15
2022-07-25T10:04:29.391Z,68.46
2022-07-25T10:09:21.792Z,66.35
2022-07-25T10:14:13.840Z,67.59
2022-07-25T10:19:05.575Z,71.71
2022-07-25T10:23:59.350Z,74.77
2022-07-25T10:28:53.905Z,76.09
2022-07-25T10:33:50.758Z,77.61
2022-07-25T10:38:45.461Z,77.43
2022-07-25T10:43:39.443Z,76.59
2022-07-25T10:48:32.950Z,78.49
2022-07-25T10:53:33.710Z,78.96
2022-07-25T10:58:25.441Z,79.38
2022-07-25T11:03:18.565Z,81.91
2022-07-25T11:08:21.797Z,78.39
2022-07-25T11:13:16.901Z,72.76
2022-07-25T11:18:08.527Z,68.21
2022-07-25T11:23:00.278Z,67.97
2022-07-25T11:28:00.916Z,71.04
2022-07-25T11:32:56.174Z,72.49
2022-07-25T11:37:51.612Z,73.03
2022-07-25T11:42:48.716Z,74.58
2022-07-25T11:47:40.387Z,68.24
2022-07-25T11:52:37.152Z,69.07
2022-07-25T11:57:31.051Z,68.50
2022-07-25T12:02:31.177Z,68.70
2022-07-25T12:07:53.782Z,70.73
2022-07-25T12:12:56.250Z,71.32
2022-07-25T12:17:48.948Z,76.66
2022-07-25T12:22:40.710Z,72.83
2022-07-25T12:27:32.868Z,68.27
2022-07-25T12:32:24.576Z,68.24
2022-07-25T12:37:16.289Z,68.22
2022-07-25T12:42:07.993Z,67.54
2022-07-25T12:46:59.680Z,67.23
2022-07-25T12:51:56.095Z,67.02
2022-07-25T12:56:50.825Z,65.18
2022-07-25T13:01:42.661Z,65.06
2022-07-25T13:06:38.619Z,66.12
2022-07-25T13:11:30.959Z,66.84
2022-07-25T13:16:22.949Z,67.16
2022-07-25T13:21:14.731Z,67.22
2022-07-25T13:26:07.504Z,65.51
2022-07-25T13:30:59.320Z,65.29
2022-07-25T13:35:51.929Z,62.83
2022-07-25T13:40:43.595Z,63.80
2022-07-25T13:45:35.616Z,63.13
2022-07-25T13:50:27.521Z,62.32
2022-07-25T13:55:21.221Z,61.85
2022-07-25T14:00:13.118Z,61.71
2022-07-25T14:05:05.320Z,59.49
2022-07-25T14:09:57.409Z,60.71
2022-07-25T14:14:49.057Z,60.67
2022-07-25T14:19:40.946Z,60.44
2022-07-25T14:24:32.622Z,61.58
2022-07-25T14:29:30.108Z,61.22
2022-07-25T14:34:22.225Z,61.97
2022-07-25T14:39:15.244Z,61.13
2022-07-25T14:44:07.258Z,60.62
2022-07-25T14:48:59.426Z,61.13
2022-07-25T14:53:53.311Z,62.40
2022-07-25T14:58:45.263Z,62.69
2022-07-25T15:03:37.830Z,63.38
2022-07-25T15:08:29.636Z,65.07
2022-07-25T15:13:31.014Z,64.93
2022-07-25T15:18:23.417Z,64.25
2022-07-25T15:23:15.331Z,64.80
2022-07-25T15:28:07.234Z,66.13
2022-07-25T15:32:58.936Z,67.46
2022-07-25T15:37:50.739Z,67.51
2022-07-25T15:42:42.492Z,68.10
2022-07-25T15:47:34.653Z,68.77
2022-07-25T15:52:26.789Z,68.34
2022-07-25T15:57:18.726Z,69.67
2022-07-25T16:02:17.194Z,69.45
2022-07-25T16:07:09.010Z,67.23
2022-07-25T16:12:01.543Z,66.78
2022-07-25T16:16:55.804Z,66.27
2022-07-25T16:21:47.537Z,66.68
2022-07-25T16:26:39.248Z,66.91
2022-07-25T16:31:31.594Z,69.90
2022-07-25T16:36:23.565Z,70.40
2022-07-25T16:41:15.751Z,71.25
2022-07-25T16:46:08.001Z,70.69
2022-07-25T16:51:00.583Z,70.61
2022-07-25T16:55:52.290Z,71.14
2022-07-25T17:00:44.341Z,69.95
2022-07-25T17:05:36.029Z,70.07
2022-07-25T17:10:28.402Z,71.02
2022-07-25T17:15:20.246Z,73.03
2022-07-25T17:20:12.207Z,75.50
2022-07-25T17:25:04.082Z,77.03
2022-07-25T17:29:55.765Z,77.22
2022-07-25T17:34:47.527Z,78.20
2022-07-25T17:39:40.048Z,78.93
2022-07-25T17:44:31.696Z,79.30
2022-07-25T17:49:23.380Z,78.25
2022-07-25T17:54:15.086Z,78.49
2022-07-25T17:59:08.650Z,80.00
2022-07-25T18:04:00.382Z,79.08
2022-07-25T18:08:52.255Z,75.82
2022-07-25T18:13:44.331Z,75.79
2022-07-25T18:18:35.966Z,75.39
2022-07-25T18:23:28.808Z,74.51
2022-07-25T18:28:22.115Z,73.07
2022-07-25T18:33:13.931Z,72.22
2022-07-25T18:38:06.095Z,71.25
2022-07-25T18:42:58.141Z,71.16
2022-07-25T18:47:50.108Z,70.74
2022-07-25T18:52:41.870Z,70.52
2022-07-25T18:57:34.104Z,70.34
2022-07-25T19:02:26.319Z,70.34
2022-07-25T19:07:18.389Z,70.05
2022-07-25T19:12:10.416Z,70.61
2022-07-25T19:17:03.063Z,70.09
2022-07-25T19:21:54.847Z,70.62
2022-07-25T19:26:47.864Z,70.57
2022-07-25T19:31:40.269Z,70.88
2022-07-25T19:36:32.928Z,71.34
2022-07-25T19:41:24.993Z,71.89
2022-07-25T19:46:16.705Z,73.30
2022-07-25T19:51:08.420Z,74.85
2022-07-25T19:56:01.557Z,75.86
2022-07-25T20:00:53.267Z,77.61
2022-07-25T20:05:45.262Z,77.58
2022-07-25T20:10:37.068Z,77.31
2022-07-25T20:15:29.196Z,77.60
2022-07-25T20:20:20.845Z,77.61
2022-07-25T20:25:14.073Z,77.99
2022-07-25T20:30:07.785Z,78.23
2022-07-25T20:34:59.534Z,78.81
2022-07-25T20:39:51.406Z,79.30
2022-07-25T20:44:43.524Z,79.23
2022-07-25T20:49:35.404Z,79.97
2022-07-25T20:54:27.080Z,80.51
2022-07-25T20:59:18.783Z,81.18
2022-07-25T21:04:10.468Z,81.69
2022-07-25T21:09:02.270Z,82.24
2022-07-25T21:13:54.070Z,82.99
2022-07-25T21:18:46.064Z,83.92
2022-07-25T21:23:38.907Z,84.64
2022-07-25T21:28:31.123Z,84.90
2022-07-25T21:33:22.938Z,85.15
2022-07-25T21:38:27.634Z,85.63
2022-07-25T21:43:20.856Z,85.44
2022-07-25T21:48:12.727Z,85.23
2022-07-25T21:53:10.134Z,85.97
2022-07-25T21:58:02.039Z,86.16
2022-07-25T22:02:53.689Z,86.29
2022-07-25T22:07:46.258Z,86.60
2022-07-25T22:12:38.857Z,86.77
2022-07-25T22:17:48.686Z,86.64
2022-07-25T22:22:41.668Z,87.26
2022-07-25T22:27:33.678Z,87.82
2022-07-25T22:32:25.437Z,87.86
2022-07-25T22:37:17.132Z,88.37
2022-07-25T22:42:08.800Z,88.73
2022-07-25T22:47:00.556Z,88.82
2022-07-25T22:51:52.365Z,89.10
2022-07-25T22:56:44.358Z,89.53
2022-07-25T23:01:36.013Z,90.28
2022-07-25T23:06:27.720Z,90.86
2022-07-25T23:11:19.477Z,91.31
2022-07-25T23:16:11.238Z,92.03
2022-07-25T23:21:03.396Z,92.69
2022-07-25T23:25:55.055Z,93.44
2022-07-25T23:30:46.817Z,93.24
2022-07-25T23:35:38.485Z,93.50
2022-07-25T23:40:30.433Z,94.45
2022-07-25T23:45:25.009Z,94.92
2022-07-25T23:50:19.629Z,95.82
2022-07-25T23:55:11.451Z,96.57
